createdAt,value
2022-12-14T00:01:27.243Z,59.38
2022-12-14T00:06:21.633Z,59.53
2022-12-14T00:11:14.507Z,51.10
2022-12-14T00:16:09.107Z,54.05
2022-12-14T00:21:06.568Z,54.95
2022-12-14T00:25:58.504Z,48.83
2022-12-14T00:30:58.502Z,45.47
2022-12-14T00:35:50.228Z,49.38
2022-12-14T00:40:41.915Z,51.25
2022-12-14T00:45:33.824Z,50.20
2022-12-14T00:50:25.504Z,47.05
2022-12-14T00:55:17.348Z,52.75
2022-12-14T01:00:09.673Z,50.97
2022-12-14T01:05:01.270Z,52.35
2022-12-14T01:09:52.935Z,35.33
2022-12-14T01:14:46.710Z,42.33
2022-12-14T01:19:38.605Z,40.45
2022-12-14T01:24:30.554Z,39.20
2022-12-14T01:29:22.291Z,41.58
2022-12-14T01:34:13.984Z,39.70
2022-12-14T01:39:13.954Z,33.10
2022-12-14T01:44:08.730Z,39.50
2022-12-14T01:49:23.362Z,40.58
2022-12-14T01:54:16.120Z,34.05
2022-12-14T01:59:15.475Z,36.88
2022-12-14T02:04:08.662Z,39.28
2022-12-14T02:09:00.433Z,38.38
2022-12-14T02:13:52.160Z,36.92
2022-12-14T02:18:43.789Z,39.78
2022-12-14T02:23:50.742Z,38.50
2022-12-14T02:29:01.258Z,42.75
2022-12-14T02:34:15.341Z,44.63
2022-12-14T02:39:17.326Z,47.10
2022-12-14T02:44:15.016Z,44.33
2022-12-14T02:49:10.491Z,44.83
2022-12-14T02:54:14.643Z,42.15
2022-12-14T02:59:08.930Z,49.00
2022-12-14T03:04:01.350Z,53.28
2022-12-14T03:09:11.233Z,49.25
2022-12-14T03:14:12.949Z,44.60
2022-12-14T03:19:20.791Z,36.92
2022-12-14T03:24:17.890Z,43.63
2022-12-14T03:29:23.963Z,49.42
2022-12-14T03:34:18.526Z,47.70
2022-12-14T03:39:14.954Z,50.90
2022-12-14T03:44:44.718Z,55.10
2022-12-14T03:49:49.033Z,52.25
2022-12-14T03:54:54.601Z,49.90
2022-12-14T03:59:54.378Z,49.22
2022-12-14T04:04:50.336Z,45.40
2022-12-14T04:09:42.055Z,42.67
2022-12-14T04:14:58.243Z,42.63
2022-12-14T04:20:01.160Z,39.75
2022-12-14T04:25:38.710Z,39.95
2022-12-14T04:30:35.756Z,37.28
2022-12-14T04:35:37.453Z,36.47
2022-12-14T04:41:01.555Z,36.90
2022-12-14T04:45:59.302Z,45.58
2022-12-14T04:51:04.689Z,42.38
2022-12-14T04:56:11.858Z,38.30
2022-12-14T05:01:35.491Z,38.17
2022-12-14T05:06:40.670Z,38.40
2022-12-14T05:11:57.459Z,37.53
2022-12-14T05:16:50.191Z,35.28
2022-12-14T05:21:47.746Z,51.40
2022-12-14T05:26:39.784Z,49.13
2022-12-14T05:31:31.621Z,105.68
2022-12-14T05:36:23.344Z,99.05
2022-12-14T05:41:15.327Z,56.00
2022-12-14T05:46:07.799Z,58.90
2022-12-14T05:51:13.180Z,46.60
2022-12-14T05:56:06.144Z,43.65
2022-12-14T06:01:11.606Z,44.63
2022-12-14T06:06:09.836Z,43.95
2022-12-14T06:11:10.437Z,40.15
2022-12-14T06:16:13.538Z,33.40
2022-12-14T06:21:05.908Z,49.63
2022-12-14T06:25:57.584Z,33.65
2022-12-14T06:30:49.457Z,36.60
2022-12-14T06:35:45.151Z,42.47
2022-12-14T06:40:37.108Z,33.92
2022-12-14T06:45:29.735Z,38.35
2022-12-14T06:50:21.507Z,36.72
2022-12-14T06:55:13.352Z,43.03
2022-12-14T07:00:05.472Z,41.20
2022-12-14T07:04:57.143Z,32.05
2022-12-14T07:09:48.960Z,32.47
2022-12-14T07:14:40.637Z,32.00
2022-12-14T07:19:32.304Z,28.92
2022-12-14T07:24:24.015Z,25.05
2022-12-14T07:29:17.054Z,39.30
2022-12-14T07:34:12.758Z,35.78
2022-12-14T07:39:05.122Z,29.52
2022-12-14T07:43:57.594Z,29.88
2022-12-14T07:48:54.458Z,30.95
2022-12-14T07:53:46.183Z,28.42
2022-12-14T07:58:38.551Z,28.45
2022-12-14T08:03:30.611Z,29.60
2022-12-14T08:08:22.758Z,26.67
2022-12-14T08:13:14.495Z,28.90
2022-12-14T08:18:06.339Z,24.52
2022-12-14T08:22:58.535Z,24.60
2022-12-14T08:27:50.296Z,27.80
2022-12-14T08:32:42.060Z,27.25
2022-12-14T08:37:33.824Z,27.67
2022-12-14T08:42:25.517Z,21.30
2022-12-14T08:47:17.322Z,25.33
2022-12-14T08:52:11.446Z,23.45
2022-12-14T08:57:04.803Z,24.70
2022-12-14T09:01:56.840Z,29.50
2022-12-14T09:06:48.755Z,22.35
2022-12-14T09:11:40.555Z,24.00
2022-12-14T09:16:32.645Z,24.30
2022-12-14T09:21:24.570Z,22.83
2022-12-14T09:31:17.162Z,24.67
2022-12-14T09:36:24.155Z,23.23
2022-12-14T09:41:34.422Z,17.42
2022-12-14T09:46:32.391Z,20.10
2022-12-14T09:51:31.815Z,18.83
2022-12-14T09:56:23.775Z,22.67
2022-12-14T10:01:22.555Z,20.85
2022-12-14T10:06:47.947Z,18.88
2022-12-14T10:12:04.098Z,18.90
2022-12-14T10:16:55.729Z,18.15
2022-12-14T10:21:55.484Z,20.23
2022-12-14T10:26:51.967Z,18.83
2022-12-14T10:31:46.317Z,19.25
2022-12-14T10:36:54.169Z,20.77
2022-12-14T10:41:58.370Z,16.57
2022-12-14T10:46:59.737Z,18.65
2022-12-14T10:52:02.203Z,22.02
2022-12-14T10:56:54.070Z,16.27
2022-12-14T11:01:49.361Z,18.67
2022-12-14T11:06:41.228Z,19.42
2022-12-14T11:11:33.014Z,15.68
2022-12-14T11:16:33.674Z,20.30
2022-12-14T11:21:49.898Z,15.70
2022-12-14T11:26:43.385Z,18.30
2022-12-14T11:31:35.770Z,15.18
2022-12-14T11:36:42.251Z,16.58
2022-12-14T11:41:42.418Z,18.45
2022-12-14T11:46:50.065Z,15.85
2022-12-14T11:52:06.177Z,15.37
2022-12-14T11:57:08.686Z,20.30
2022-12-14T12:02:31.429Z,13.82
2022-12-14T12:07:36.921Z,19.95
2022-12-14T12:12:28.910Z,16.42
2022-12-14T12:17:43.593Z,18.52
2022-12-14T12:22:36.981Z,20.95
2022-12-14T12:27:29.479Z,19.05
2022-12-14T12:32:33.292Z,18.33
2022-12-14T12:37:55.138Z,18.27
2022-12-14T12:42:53.795Z,19.75
2022-12-14T12:47:52.499Z,16.80
2022-12-14T12:53:03.940Z,17.77
2022-12-14T12:57:59.264Z,11.90
2022-12-14T13:03:20.595Z,14.95
2022-12-14T13:08:26.977Z,13.65
2022-12-14T13:13:24.135Z,17.10
2022-12-14T13:18:57.726Z,11.88
2022-12-14T13:23:45.550Z,11.93
2022-12-14T13:29:08.342Z,12.55
2022-12-14T13:34:22.407Z,20.50
2022-12-14T13:39:16.849Z,15.43
2022-12-14T13:44:41.904Z,15.52
2022-12-14T13:49:36.362Z,15.60
2022-12-14T13:54:33.204Z,22.02
2022-12-14T13:59:39.990Z,17.25
2022-12-14T14:04:36.493Z,20.10
2022-12-14T14:09:31.323Z,20.58
2022-12-14T14:14:35.348Z,20.02
2022-12-14T14:19:35.008Z,22.27
2022-12-14T14:24:27.926Z,22.55
2022-12-14T14:29:27.061Z,22.27
2022-12-14T14:34:34.758Z,20.25
2022-12-14T14:39:57.757Z,19.13
2022-12-14T14:44:56.258Z,17.73
2022-12-14T14:49:54.976Z,18.40
2022-12-14T14:55:21.349Z,19.10
2022-12-14T15:00:02.761Z,19.63
2022-12-14T15:04:57.043Z,13.40
2022-12-14T15:09:58.261Z,16.58
2022-12-14T15:15:00.955Z,16.13
2022-12-14T15:19:58.276Z,16.88
2022-12-14T15:24:54.240Z,12.00
2022-12-14T15:29:49.376Z,11.55
2022-12-14T15:35:09.555Z,11.98
2022-12-14T15:40:16.758Z,11.43
2022-12-14T15:45:14.535Z,9.00
2022-12-14T15:50:24.075Z,11.73
2022-12-14T15:55:37.919Z,10.15
2022-12-14T16:00:29.823Z,11.32
2022-12-14T16:05:22.720Z,8.23
2022-12-14T16:10:23.858Z,11.55
2022-12-14T16:15:34.087Z,7.68
2022-12-14T16:20:29.870Z,7.53
2022-12-14T16:25:21.759Z,7.10
2022-12-14T16:30:35.457Z,7.63
2022-12-14T16:35:27.207Z,7.15
2022-12-14T16:40:34.358Z,7.55
2022-12-14T16:45:31.904Z,5.82
2022-12-14T16:50:55.047Z,8.07
2022-12-14T16:56:04.714Z,7.80
2022-12-14T17:01:08.105Z,8.35
2022-12-14T17:06:02.914Z,9.45
2022-12-14T17:10:55.110Z,8.15
2022-12-14T17:16:05.962Z,6.00
2022-12-14T17:20:58.583Z,5.75
2022-12-14T17:25:50.916Z,8.15
2022-12-14T17:30:42.656Z,25.45
2022-12-14T17:35:34.520Z,8.13
2022-12-14T17:40:27.214Z,18.38
2022-12-14T17:45:25.238Z,10.40
2022-12-14T17:50:18.025Z,7.75
2022-12-14T17:55:24.395Z,6.03
2022-12-14T18:00:41.735Z,4.65
2022-12-14T18:05:33.984Z,7.57
2022-12-14T18:10:26.532Z,5.47
2022-12-14T18:15:22.636Z,4.63
2022-12-14T18:20:14.360Z,6.20
2022-12-14T18:25:38.238Z,6.53
2022-12-14T18:30:36.941Z,7.97
2022-12-14T18:35:33.962Z,5.85
2022-12-14T18:40:28.338Z,5.43
2022-12-14T18:45:22.737Z,5.15
2022-12-14T18:50:16.173Z,11.75
2022-12-14T18:55:29.932Z,20.92
2022-12-14T19:00:25.020Z,18.63
2022-12-14T19:05:19.461Z,15.75
2022-12-14T19:10:17.090Z,8.65
2022-12-14T19:15:15.699Z,8.77
2022-12-14T19:20:08.080Z,6.85
2022-12-14T19:24:59.900Z,7.97
2022-12-14T19:29:51.552Z,6.28
2022-12-14T19:34:43.296Z,8.45
2022-12-14T19:39:35.123Z,4.05
2022-12-14T19:44:27.568Z,3.75
2022-12-14T19:49:19.463Z,6.43
2022-12-14T19:54:12.333Z,8.70
2022-12-14T19:59:04.117Z,7.20
2022-12-14T20:03:55.965Z,6.35
2022-12-14T20:08:49.621Z,6.88
2022-12-14T20:13:41.623Z,4.72
2022-12-14T20:18:33.836Z,7.45
2022-12-14T20:23:25.535Z,5.65
2022-12-14T20:28:17.203Z,11.15
2022-12-14T20:33:08.897Z,5.20
2022-12-14T20:38:00.787Z,6.80
2022-12-14T20:42:54.264Z,6.63
2022-12-14T20:47:46.220Z,5.13
2022-12-14T20:52:38.519Z,3.10
2022-12-14T20:57:33.143Z,5.15
2022-12-14T21:02:25.804Z,3.90
2022-12-14T21:07:21.406Z,3.75
2022-12-14T21:12:23.491Z,4.75
2022-12-14T21:17:15.423Z,6.05
2022-12-14T21:22:10.636Z,3.83
2022-12-14T21:27:03.239Z,5.60
2022-12-14T21:31:55.306Z,6.03
2022-12-14T21:36:47.603Z,3.72
2022-12-14T21:41:58.484Z,3.53
2022-12-14T21:46:50.325Z,3.78
2022-12-14T21:51:42.476Z,7.00
2022-12-14T21:56:57.031Z,4.60
2022-12-14T22:01:48.895Z,5.35
2022-12-14T22:06:40.843Z,7.82
2022-12-14T22:11:32.924Z,5.97
2022-12-14T22:16:25.032Z,6.28
2022-12-14T22:21:16.718Z,5.38
2022-12-14T22:26:08.546Z,6.30
2022-12-14T22:31:04.119Z,6.57
2022-12-14T22:35:56.371Z,4.70
2022-12-14T22:40:48.106Z,11.60
2022-12-14T22:45:39.944Z,5.25
2022-12-14T22:50:33.234Z,5.95
2022-12-14T22:55:27.851Z,6.47
2022-12-14T23:00:19.612Z,3.03
2022-12-14T23:05:12.119Z,7.20
2022-12-14T23:10:23.800Z,3.33
2022-12-14T23:15:34.744Z,5.15
2022-12-14T23:20:45.354Z,3.90
2022-12-14T23:25:55.684Z,6.45
2022-12-14T23:31:06.459Z,4.82
2022-12-14T23:36:20.025Z,6.22
2022-12-14T23:41:30.820Z,4.43
2022-12-14T23:46:41.102Z,4.05
2022-12-14T23:51:51.619Z,4.03
2022-12-14T23:57:01.894Z,5.00
